createdAt,value
2023-03-23T15:59:27.040Z,2.20
2023-03-23T16:01:57.945Z,2.17
2023-03-23T16:04:28.174Z,1.53
2023-03-23T16:06:59.033Z,1.70
2023-03-23T16:09:27.660Z,1.73
2023-03-23T16:11:56.541Z,1.60
2023-03-23T16:14:25.481Z,1.80
2023-03-23T16:16:54.215Z,1.60
2023-03-23T16:19:24.615Z,1.60
2023-03-23T16:21:53.453Z,1.60
2023-03-23T16:24:22.144Z,1.70
2023-03-23T16:26:50.884Z,1.73
2023-03-23T16:29:40.136Z,1.43
2023-03-23T16:32:08.239Z,1.60
2023-03-23T16:34:38.881Z,1.60
2023-03-23T16:37:08.601Z,1.67
2023-03-23T16:39:37.434Z,1.70
2023-03-23T16:42:06.042Z,1.87
2023-03-23T16:44:34.703Z,1.70
2023-03-23T16:47:03.392Z,1.50
2023-03-23T16:49:32.044Z,1.70
2023-03-23T16:52:01.983Z,1.87
2023-03-23T16:54:30.590Z,1.77
2023-03-23T16:56:59.259Z,1.70
2023-03-23T16:59:28.924Z,1.57
2023-03-23T17:02:03.170Z,1.50
2023-03-23T17:04:32.603Z,1.37
2023-03-23T17:07:02.587Z,1.97
2023-03-23T17:09:31.246Z,1.70
2023-03-23T17:11:59.844Z,1.60
2023-03-23T17:14:28.969Z,1.87
2023-03-23T17:16:57.869Z,1.80
2023-03-23T17:19:26.780Z,1.90
2023-03-23T17:21:55.439Z,1.67
2023-03-23T17:24:25.632Z,1.73
2023-03-23T17:26:54.358Z,1.73
2023-03-23T17:29:23.345Z,1.77
2023-03-23T17:31:52.060Z,1.40
2023-03-23T17:34:20.990Z,1.93
2023-03-23T17:36:49.816Z,1.37
2023-03-23T17:39:18.420Z,1.73
2023-03-23T17:41:48.375Z,1.50
2023-03-23T17:44:17.085Z,1.90
2023-03-23T17:46:46.453Z,1.70
2023-03-23T17:49:15.202Z,2.07
2023-03-23T17:51:44.582Z,2.03
2023-03-23T17:54:13.336Z,1.97
2023-03-23T17:56:42.071Z,1.47
2023-03-23T17:59:12.330Z,1.40
2023-03-23T18:01:41.036Z,2.00
2023-03-23T18:04:09.716Z,1.57
2023-03-23T18:06:38.393Z,1.97
2023-03-23T18:09:07.028Z,1.53
2023-03-23T18:11:35.714Z,2.00
2023-03-23T18:14:05.185Z,1.80
2023-03-23T18:16:35.309Z,1.27
2023-03-23T18:19:04.103Z,1.67
2023-03-23T18:21:32.800Z,1.57
2023-03-23T18:24:02.499Z,1.73
2023-03-23T18:26:31.163Z,1.60
2023-03-23T18:28:59.771Z,1.37
2023-03-23T18:31:28.892Z,1.57
2023-03-23T18:33:58.934Z,1.90
2023-03-23T18:36:28.702Z,1.70
2023-03-23T18:38:58.285Z,1.73
2023-03-23T18:41:26.979Z,1.87
2023-03-23T18:43:57.572Z,1.60
2023-03-23T18:46:26.938Z,1.40
2023-03-23T18:48:56.163Z,1.70
2023-03-23T18:51:26.975Z,1.70
2023-03-23T18:53:55.638Z,2.10
2023-03-23T18:56:24.340Z,1.60
2023-03-23T18:58:53.745Z,1.77
2023-03-23T19:01:22.567Z,1.90
2023-03-23T19:03:51.265Z,2.00
2023-03-23T19:06:21.691Z,1.93
2023-03-23T19:08:53.437Z,2.00
2023-03-23T19:11:25.271Z,1.67
2023-03-23T19:14:02.430Z,1.60
2023-03-23T19:16:33.993Z,1.70
2023-03-23T19:19:03.121Z,1.67
2023-03-23T19:21:32.659Z,1.63
2023-03-23T19:24:03.347Z,2.10
2023-03-23T19:26:36.590Z,1.50
2023-03-23T19:31:38.592Z,2.00
2023-03-23T19:34:08.623Z,1.97
2023-03-23T19:36:37.829Z,1.73
2023-03-23T19:39:08.799Z,1.90
2023-03-23T19:41:37.998Z,1.43
2023-03-23T19:44:07.818Z,1.73
2023-03-23T19:46:36.620Z,2.43
2023-03-23T19:49:05.753Z,1.70
2023-03-23T19:51:34.598Z,1.70
2023-03-23T19:54:03.253Z,1.83
2023-03-23T19:56:34.456Z,1.87
2023-03-23T19:59:04.646Z,2.00
2023-03-23T20:01:33.793Z,2.00
2023-03-23T20:04:04.804Z,2.00
2023-03-23T20:06:33.612Z,1.90
2023-03-23T20:09:03.116Z,1.90
2023-03-23T20:11:34.262Z,1.90
2023-03-23T20:14:03.568Z,1.67
2023-03-23T20:16:32.265Z,1.80
2023-03-23T20:19:01.360Z,1.97
2023-03-23T20:21:30.153Z,1.70
2023-03-23T20:23:59.288Z,1.90
2023-03-23T20:26:29.631Z,1.83
2023-03-23T20:28:59.933Z,1.70
2023-03-23T20:31:33.063Z,1.80
2023-03-23T20:34:04.780Z,1.90
2023-03-23T20:36:35.469Z,1.97
2023-03-23T20:39:07.522Z,1.70
2023-03-23T20:41:36.763Z,1.77
2023-03-23T20:44:07.972Z,2.10
2023-03-23T20:46:36.806Z,1.60
2023-03-23T20:49:06.015Z,2.20
2023-03-23T20:51:34.969Z,1.70
2023-03-23T20:54:05.711Z,2.10
2023-03-23T20:56:34.589Z,1.50
2023-03-23T20:59:03.629Z,2.07
2023-03-23T21:01:34.359Z,2.30
2023-03-23T21:04:03.383Z,1.70
2023-03-23T21:06:33.463Z,2.30
2023-03-23T21:09:02.149Z,2.03
2023-03-23T21:11:31.278Z,2.10
2023-03-23T21:13:59.954Z,2.00
2023-03-23T21:16:28.946Z,2.00
2023-03-23T21:18:59.030Z,2.30
2023-03-23T21:21:28.188Z,1.93
2023-03-23T21:23:57.333Z,2.03
2023-03-23T21:26:28.760Z,2.37
2023-03-23T21:28:59.967Z,2.43
2023-03-23T21:31:31.588Z,2.17
2023-03-23T21:34:02.041Z,2.23
2023-03-23T21:36:31.242Z,2.50
2023-03-23T21:39:02.109Z,2.50
2023-03-23T21:41:31.054Z,2.03
2023-03-23T21:44:11.913Z,2.20
2023-03-23T21:46:42.063Z,2.10
2023-03-23T21:49:14.140Z,2.40
2023-03-23T21:51:43.865Z,2.70
2023-03-23T21:54:12.898Z,2.77
2023-03-23T21:56:41.648Z,2.27
2023-03-23T21:59:10.285Z,2.43
2023-03-23T22:01:40.291Z,2.63
2023-03-23T22:04:09.538Z,2.30
2023-03-23T22:06:39.690Z,2.57
2023-03-23T22:09:09.672Z,2.60
2023-03-23T22:11:39.785Z,2.40
2023-03-23T22:14:08.841Z,2.30
2023-03-23T22:16:37.610Z,2.53
2023-03-23T22:19:06.505Z,2.70
2023-03-23T22:21:36.519Z,3.20
2023-03-23T22:24:06.974Z,1.87
2023-03-23T22:26:36.316Z,2.17
2023-03-23T22:29:05.483Z,2.00
2023-03-23T22:31:35.898Z,2.27
2023-03-23T22:34:04.736Z,2.73
2023-03-23T22:36:34.252Z,3.37
2023-03-23T22:39:03.898Z,3.00
2023-03-23T22:41:36.764Z,3.03
2023-03-23T22:44:06.157Z,2.90
2023-03-23T22:46:34.924Z,3.80
2023-03-23T22:49:03.833Z,3.20
2023-03-23T22:51:32.739Z,3.47
2023-03-23T22:54:01.483Z,3.70
2023-03-23T22:56:30.217Z,3.20
2023-03-23T22:59:00.442Z,3.10
2023-03-23T23:01:29.453Z,3.90
2023-03-23T23:03:58.188Z,3.30
2023-03-23T23:06:26.924Z,2.73
2023-03-23T23:08:55.726Z,3.20
2023-03-23T23:11:25.733Z,2.83
2023-03-23T23:13:54.776Z,2.97
2023-03-23T23:16:27.544Z,3.17
2023-03-23T23:18:56.406Z,3.27
2023-03-23T23:21:27.023Z,2.67
2023-03-23T23:23:55.936Z,3.40
2023-03-23T23:26:24.697Z,3.27
2023-03-23T23:28:53.863Z,2.73
2023-03-23T23:31:27.149Z,3.10
2023-03-23T23:33:57.449Z,3.40
2023-03-23T23:36:29.816Z,3.43
2023-03-23T23:38:59.602Z,3.77
2023-03-23T23:41:29.829Z,3.47
2023-03-23T23:43:58.874Z,3.00
2023-03-23T23:46:30.638Z,3.30
2023-03-23T23:48:59.869Z,3.17
2023-03-23T23:51:28.686Z,3.10
2023-03-23T23:53:58.799Z,3.27
2023-03-23T23:56:28.748Z,3.00
2023-03-23T23:58:57.720Z,2.83
